This is the latest recevied weather packets stored in our database for station/object SR4DIG-13. If no packets are shown the sender has not sent any weather packets the latest 10 day(s).
| Time | Temp. | Humidity | Pressure | Rain* | Wind** | Luminosity | Snow |
|---|---|---|---|---|---|---|---|
| 1777155533 | 6.11° C | 73% | 1000.5 hPa | 0.51 mm | - | - | - |
| 1777155232 | 6.67° C | 72% | 1000.4 hPa | 0.51 mm | - | - | - |
| 1777154931 | 6.67° C | 72% | 1000.4 hPa | 0.51 mm | - | - | - |
| 1777154630 | 6.67° C | 73% | 1000.6 hPa | 0.51 mm | - | - | - |
| 1777154330 | 6.67° C | 72% | 1000.7 hPa | 0.51 mm | - | - | - |
| 1777153692 | 6.67° C | 72% | 1001 hPa | 0.51 mm | - | - | - |
| 1777153392 | 6.67° C | 72% | 1001 hPa | 0.51 mm | - | - | - |
| 1777153091 | 6.67° C | 71% | 1001 hPa | 0.51 mm | - | - | - |
| 1777152790 | 6.67° C | 71% | 1001.1 hPa | 0.51 mm | - | - | - |
| 1777152489 | 6.67° C | 71% | 1001.1 hPa | 0.51 mm | - | - | - |
| 1777152188 | 6.67° C | 70% | 1001.1 hPa | 0.51 mm | - | - | - |
| 1777151887 | 6.67° C | 69% | 1001.1 hPa | 0.51 mm | - | - | - |
| 1777151586 | 7.22° C | 67% | 1001.2 hPa | 0.51 mm | - | - | - |
| 1777151285 | 7.22° C | 66% | 1001.1 hPa | 0.51 mm | - | - | - |
| 1777150984 | 7.22° C | 66% | 1001.2 hPa | 0 mm | - | - | - |
| 1777150684 | 8.89° C | 62% | 1001.4 hPa | 0 mm | - | - | - |
| 1777150089 | 8.89° C | 60% | 1001.5 hPa | 0 mm | - | - | - |
| 1777149788 | 9.44° C | 59% | 1001.5 hPa | 0 mm | - | - | - |
| 1777149487 | 9.44° C | 56% | 1001.6 hPa | 0 mm | - | - | - |
| 1777149186 | 9.44° C | 55% | 1001.7 hPa | 0 mm | - | - | - |
| 1777148885 | 9.44° C | 55% | 1001.7 hPa | 0 mm | - | - | - |
| 1777148585 | 10° C | 55% | 1001.8 hPa | 0 mm | - | - | - |
| 1777148284 | 10° C | 54% | 1001.9 hPa | 0 mm | - | - | - |
| 1777147921 | 10° C | 54% | 1001.9 hPa | 0 mm | - | - | - |
| 1777147619 | 10° C | 54% | 1002 hPa | 0 mm | - | - | - |
* Rain since midnight (hover to see other rain measurements)
** Current wind speed in m/s (hover to see current wind gust speed)